sensor_id;sensor_type;location;lat;lon;timestamp;P1;durP1;ratioP1;P2;durP2;ratioP2
42124;SDS011;27787;44.594;11.046;2023-03-18T00:01:04;20.60;;;9.85;;
42124;SDS011;27787;44.594;11.046;2023-03-18T00:03:50;19.48;;;9.18;;
42124;SDS011;27787;44.594;11.046;2023-03-18T00:06:35;17.77;;;8.88;;
42124;SDS011;27787;44.594;11.046;2023-03-18T00:12:05;21.25;;;8.57;;
42124;SDS011;27787;44.594;11.046;2023-03-18T00:14:50;22.02;;;9.77;;
42124;SDS011;27787;44.594;11.046;2023-03-18T00:17:34;18.95;;;9.20;;
42124;SDS011;27787;44.594;11.046;2023-03-18T00:20:20;17.50;;;9.35;;
42124;SDS011;27787;44.594;11.046;2023-03-18T00:23:11;19.00;;;9.15;;
42124;SDS011;27787;44.594;11.046;2023-03-18T00:25:56;21.30;;;8.93;;
42124;SDS011;27787;44.594;11.046;2023-03-18T00:28:41;25.00;;;10.32;;
42124;SDS011;27787;44.594;11.046;2023-03-18T00:31:25;18.60;;;8.63;;
42124;SDS011;27787;44.594;11.046;2023-03-18T00:34:11;16.98;;;9.13;;
42124;SDS011;27787;44.594;11.046;2023-03-18T00:36:58;18.08;;;9.02;;
42124;SDS011;27787;44.594;11.046;2023-03-18T00:39:43;18.17;;;7.90;;
42124;SDS011;27787;44.594;11.046;2023-03-18T00:45:19;23.50;;;8.88;;
42124;SDS011;27787;44.594;11.046;2023-03-18T00:48:05;15.73;;;8.45;;
42124;SDS011;27787;44.594;11.046;2023-03-18T00:50:50;19.65;;;8.88;;
42124;SDS011;27787;44.594;11.046;2023-03-18T00:53:34;20.88;;;9.20;;
42124;SDS011;27787;44.594;11.046;2023-03-18T00:56:19;15.85;;;8.90;;
42124;SDS011;27787;44.594;11.046;2023-03-18T00:59:06;15.60;;;7.57;;
42124;SDS011;27787;44.594;11.046;2023-03-18T01:01:51;16.70;;;8.15;;
42124;SDS011;27787;44.594;11.046;2023-03-18T01:04:36;15.50;;;8.40;;
42124;SDS011;27787;44.594;11.046;2023-03-18T01:07:21;15.27;;;8.43;;
42124;SDS011;27787;44.594;11.046;2023-03-18T01:10:06;19.63;;;8.10;;
42124;SDS011;27787;44.594;11.046;2023-03-18T01:12:52;23.52;;;8.80;;
42124;SDS011;27787;44.594;11.046;2023-03-18T01:15:36;19.38;;;9.20;;
42124;SDS011;27787;44.594;11.046;2023-03-18T01:18:20;18.55;;;9.52;;
42124;SDS011;27787;44.594;11.046;2023-03-18T01:21:07;22.00;;;8.65;;
42124;SDS011;27787;44.594;11.046;2023-03-18T01:23:55;16.20;;;7.95;;
42124;SDS011;27787;44.594;11.046;2023-03-18T01:26:40;22.27;;;9.83;;
42124;SDS011;27787;44.594;11.046;2023-03-18T01:29:24;15.63;;;8.30;;
42124;SDS011;27787;44.594;11.046;2023-03-18T01:32:09;16.67;;;8.57;;
42124;SDS011;27787;44.594;11.046;2023-03-18T01:34:53;22.30;;;9.30;;
42124;SDS011;27787;44.594;11.046;2023-03-18T01:37:38;15.00;;;8.35;;
42124;SDS011;27787;44.594;11.046;2023-03-18T01:40:27;18.80;;;8.10;;
42124;SDS011;27787;44.594;11.046;2023-03-18T01:43:20;15.15;;;7.88;;
42124;SDS011;27787;44.594;11.046;2023-03-18T01:52:17;23.80;;;11.00;;
42124;SDS011;27787;44.594;11.046;2023-03-18T01:55:06;23.42;;;10.75;;
42124;SDS011;27787;44.594;11.046;2023-03-18T01:57:55;24.08;;;9.25;;
42124;SDS011;27787;44.594;11.046;2023-03-18T02:00:43;19.17;;;9.38;;
42124;SDS011;27787;44.594;11.046;2023-03-18T02:03:33;20.55;;;9.10;;
42124;SDS011;27787;44.594;11.046;2023-03-18T02:06:19;19.65;;;9.55;;
42124;SDS011;27787;44.594;11.046;2023-03-18T02:09:11;21.05;;;9.48;;
42124;SDS011;27787;44.594;11.046;2023-03-18T02:11:56;17.17;;;8.77;;
42124;SDS011;27787;44.594;11.046;2023-03-18T02:14:41;16.95;;;8.52;;
42124;SDS011;27787;44.594;11.046;2023-03-18T02:17:28;22.13;;;9.48;;
42124;SDS011;27787;44.594;11.046;2023-03-18T02:26:15;19.95;;;9.55;;
42124;SDS011;27787;44.594;11.046;2023-03-18T02:29:07;24.08;;;10.02;;
42124;SDS011;27787;44.594;11.046;2023-03-18T02:32:04;20.67;;;8.73;;
42124;SDS011;27787;44.594;11.046;2023-03-18T02:34:51;21.60;;;9.38;;
42124;SDS011;27787;44.594;11.046;2023-03-18T02:37:35;18.77;;;8.75;;
42124;SDS011;27787;44.594;11.046;2023-03-18T02:40:34;20.88;;;9.68;;
42124;SDS011;27787;44.594;11.046;2023-03-18T02:43:29;18.63;;;8.50;;
42124;SDS011;27787;44.594;11.046;2023-03-18T02:49:06;18.23;;;8.85;;
42124;SDS011;27787;44.594;11.046;2023-03-18T02:51:52;19.95;;;9.02;;
42124;SDS011;27787;44.594;11.046;2023-03-18T02:54:37;18.48;;;9.63;;
42124;SDS011;27787;44.594;11.046;2023-03-18T02:57:21;16.30;;;8.27;;
42124;SDS011;27787;44.594;11.046;2023-03-18T03:00:06;16.20;;;9.07;;
42124;SDS011;27787;44.594;11.046;2023-03-18T03:02:52;20.00;;;8.63;;
42124;SDS011;27787;44.594;11.046;2023-03-18T03:05:36;17.58;;;7.70;;
42124;SDS011;27787;44.594;11.046;2023-03-18T03:08:22;18.45;;;7.57;;
42124;SDS011;27787;44.594;11.046;2023-03-18T03:13:53;13.37;;;6.97;;
42124;SDS011;27787;44.594;11.046;2023-03-18T03:16:38;13.73;;;7.50;;
42124;SDS011;27787;44.594;11.046;2023-03-18T03:19:22;19.33;;;7.88;;
42124;SDS011;27787;44.594;11.046;2023-03-18T03:22:06;16.63;;;7.53;;
42124;SDS011;27787;44.594;11.046;2023-03-18T03:24:50;16.40;;;7.20;;
42124;SDS011;27787;44.594;11.046;2023-03-18T03:27:35;14.15;;;7.03;;
42124;SDS011;27787;44.594;11.046;2023-03-18T03:30:20;15.00;;;7.68;;
42124;SDS011;27787;44.594;11.046;2023-03-18T03:33:06;14.60;;;6.65;;
42124;SDS011;27787;44.594;11.046;2023-03-18T03:35:51;15.50;;;6.90;;
42124;SDS011;27787;44.594;11.046;2023-03-18T03:38:36;16.75;;;7.38;;
42124;SDS011;27787;44.594;11.046;2023-03-18T03:41:21;15.15;;;7.35;;
42124;SDS011;27787;44.594;11.046;2023-03-18T03:44:06;14.93;;;6.53;;
42124;SDS011;27787;44.594;11.046;2023-03-18T03:46:52;20.90;;;7.13;;
42124;SDS011;27787;44.594;11.046;2023-03-18T03:49:39;15.55;;;6.18;;
42124;SDS011;27787;44.594;11.046;2023-03-18T03:52:24;13.20;;;6.40;;
42124;SDS011;27787;44.594;11.046;2023-03-18T03:55:10;13.07;;;6.93;;
42124;SDS011;27787;44.594;11.046;2023-03-18T03:57:56;12.82;;;6.57;;
42124;SDS011;27787;44.594;11.046;2023-03-18T04:00:42;12.13;;;6.25;;
42124;SDS011;27787;44.594;11.046;2023-03-18T04:03:26;13.77;;;6.60;;
42124;SDS011;27787;44.594;11.046;2023-03-18T04:06:11;12.93;;;6.63;;
42124;SDS011;27787;44.594;11.046;2023-03-18T04:09:02;13.02;;;5.68;;
42124;SDS011;27787;44.594;11.046;2023-03-18T04:11:48;11.88;;;6.55;;
42124;SDS011;27787;44.594;11.046;2023-03-18T04:14:33;12.25;;;6.43;;
42124;SDS011;27787;44.594;11.046;2023-03-18T04:17:17;8.07;;;5.18;;
42124;SDS011;27787;44.594;11.046;2023-03-18T04:20:02;14.27;;;6.43;;
42124;SDS011;27787;44.594;11.046;2023-03-18T04:22:49;14.98;;;6.75;;
42124;SDS011;27787;44.594;11.046;2023-03-18T04:25:36;13.52;;;6.30;;
42124;SDS011;27787;44.594;11.046;2023-03-18T04:28:21;14.63;;;5.57;;
42124;SDS011;27787;44.594;11.046;2023-03-18T04:31:04;14.85;;;6.53;;
42124;SDS011;27787;44.594;11.046;2023-03-18T04:33:50;12.02;;;6.22;;
42124;SDS011;27787;44.594;11.046;2023-03-18T04:36:34;10.25;;;5.50;;
42124;SDS011;27787;44.594;11.046;2023-03-18T04:39:19;12.25;;;5.72;;
42124;SDS011;27787;44.594;11.046;2023-03-18T04:42:03;11.88;;;5.82;;
42124;SDS011;27787;44.594;11.046;2023-03-18T04:44:48;11.13;;;5.63;;
42124;SDS011;27787;44.594;11.046;2023-03-18T04:47:33;13.07;;;5.63;;
42124;SDS011;27787;44.594;11.046;2023-03-18T04:50:19;10.73;;;6.22;;
42124;SDS011;27787;44.594;11.046;2023-03-18T04:53:04;15.40;;;6.97;;
42124;SDS011;27787;44.594;11.046;2023-03-18T04:55:49;13.15;;;6.15;;
42124;SDS011;27787;44.594;11.046;2023-03-18T04:58:35;11.05;;;5.90;;
42124;SDS011;27787;44.594;11.046;2023-03-18T05:01:26;8.95;;;5.35;;
42124;SDS011;27787;44.594;11.046;2023-03-18T05:04:11;10.18;;;6.07;;
42124;SDS011;27787;44.594;11.046;2023-03-18T05:07:03;8.65;;;5.07;;
42124;SDS011;27787;44.594;11.046;2023-03-18T05:09:53;10.63;;;5.75;;
42124;SDS011;27787;44.594;11.046;2023-03-18T05:12:39;11.23;;;5.60;;
42124;SDS011;27787;44.594;11.046;2023-03-18T05:15:25;12.43;;;5.85;;
42124;SDS011;27787;44.594;11.046;2023-03-18T05:18:12;11.30;;;5.65;;
42124;SDS011;27787;44.594;11.046;2023-03-18T05:23:42;12.05;;;5.85;;
42124;SDS011;27787;44.594;11.046;2023-03-18T05:26:26;10.75;;;5.60;;
42124;SDS011;27787;44.594;11.046;2023-03-18T05:29:11;11.75;;;5.43;;
42124;SDS011;27787;44.594;11.046;2023-03-18T05:32:03;15.57;;;5.75;;
42124;SDS011;27787;44.594;11.046;2023-03-18T05:34:50;13.93;;;5.60;;
42124;SDS011;27787;44.594;11.046;2023-03-18T05:37:34;11.50;;;5.50;;
42124;SDS011;27787;44.594;11.046;2023-03-18T05:40:23;10.98;;;5.40;;
42124;SDS011;27787;44.594;11.046;2023-03-18T05:43:27;10.68;;;5.63;;
42124;SDS011;27787;44.594;11.046;2023-03-18T05:46:14;11.93;;;5.45;;
42124;SDS011;27787;44.594;11.046;2023-03-18T05:49:09;11.23;;;5.18;;
42124;SDS011;27787;44.594;11.046;2023-03-18T05:52:13;10.55;;;5.38;;
42124;SDS011;27787;44.594;11.046;2023-03-18T05:55:02;10.45;;;5.75;;
42124;SDS011;27787;44.594;11.046;2023-03-18T05:57:51;10.13;;;5.53;;
42124;SDS011;27787;44.594;11.046;2023-03-18T06:00:37;17.02;;;5.35;;
42124;SDS011;27787;44.594;11.046;2023-03-18T06:03:21;13.38;;;5.68;;
42124;SDS011;27787;44.594;11.046;2023-03-18T06:06:07;12.55;;;6.10;;
42124;SDS011;27787;44.594;11.046;2023-03-18T06:08:52;10.98;;;5.78;;
42124;SDS011;27787;44.594;11.046;2023-03-18T06:11:36;9.98;;;5.38;;
42124;SDS011;27787;44.594;11.046;2023-03-18T06:14:20;14.50;;;5.40;;
42124;SDS011;27787;44.594;11.046;2023-03-18T06:17:05;11.70;;;6.10;;
42124;SDS011;27787;44.594;11.046;2023-03-18T06:19:49;10.88;;;5.57;;
42124;SDS011;27787;44.594;11.046;2023-03-18T06:22:33;10.30;;;5.18;;
42124;SDS011;27787;44.594;11.046;2023-03-18T06:25:18;11.88;;;5.75;;
42124;SDS011;27787;44.594;11.046;2023-03-18T06:28:06;9.73;;;5.78;;
42124;SDS011;27787;44.594;11.046;2023-03-18T06:30:53;11.00;;;5.47;;
42124;SDS011;27787;44.594;11.046;2023-03-18T06:33:39;15.38;;;6.50;;
42124;SDS011;27787;44.594;11.046;2023-03-18T06:36:26;11.43;;;6.07;;
42124;SDS011;27787;44.594;11.046;2023-03-18T06:39:11;12.73;;;6.43;;
42124;SDS011;27787;44.594;11.046;2023-03-18T06:41:57;12.90;;;6.50;;
42124;SDS011;27787;44.594;11.046;2023-03-18T06:44:48;13.05;;;6.80;;
42124;SDS011;27787;44.594;11.046;2023-03-18T06:47:50;15.98;;;7.57;;
42124;SDS011;27787;44.594;11.046;2023-03-18T06:50:35;12.63;;;6.85;;
42124;SDS011;27787;44.594;11.046;2023-03-18T06:53:24;13.50;;;6.63;;
42124;SDS011;27787;44.594;11.046;2023-03-18T06:56:10;16.52;;;7.13;;
42124;SDS011;27787;44.594;11.046;2023-03-18T06:59:10;10.68;;;6.05;;
42124;SDS011;27787;44.594;11.046;2023-03-18T07:01:56;15.05;;;6.95;;
42124;SDS011;27787;44.594;11.046;2023-03-18T07:04:41;13.27;;;7.43;;
42124;SDS011;27787;44.594;11.046;2023-03-18T07:07:27;15.05;;;7.25;;
42124;SDS011;27787;44.594;11.046;2023-03-18T07:10:17;14.23;;;7.28;;
42124;SDS011;27787;44.594;11.046;2023-03-18T07:13:08;15.20;;;7.97;;
42124;SDS011;27787;44.594;11.046;2023-03-18T07:15:57;15.27;;;6.88;;
42124;SDS011;27787;44.594;11.046;2023-03-18T07:18:42;15.00;;;8.52;;
42124;SDS011;27787;44.594;11.046;2023-03-18T07:21:26;17.88;;;8.48;;
42124;SDS011;27787;44.594;11.046;2023-03-18T07:24:10;21.65;;;7.63;;
42124;SDS011;27787;44.594;11.046;2023-03-18T07:26:55;15.68;;;9.18;;
42124;SDS011;27787;44.594;11.046;2023-03-18T07:29:40;18.00;;;9.32;;
42124;SDS011;27787;44.594;11.046;2023-03-18T07:32:24;15.98;;;8.38;;
42124;SDS011;27787;44.594;11.046;2023-03-18T07:35:09;17.92;;;8.93;;
42124;SDS011;27787;44.594;11.046;2023-03-18T07:37:56;18.30;;;8.88;;
42124;SDS011;27787;44.594;11.046;2023-03-18T07:40:41;19.15;;;8.32;;
42124;SDS011;27787;44.594;11.046;2023-03-18T07:43:25;15.30;;;8.23;;
42124;SDS011;27787;44.594;11.046;2023-03-18T07:46:09;31.23;;;9.55;;
42124;SDS011;27787;44.594;11.046;2023-03-18T07:48:54;18.30;;;8.85;;
42124;SDS011;27787;44.594;11.046;2023-03-18T07:51:39;17.48;;;8.98;;
42124;SDS011;27787;44.594;11.046;2023-03-18T07:54:23;26.27;;;10.52;;
42124;SDS011;27787;44.594;11.046;2023-03-18T07:57:07;19.15;;;9.13;;
42124;SDS011;27787;44.594;11.046;2023-03-18T07:59:52;16.23;;;9.40;;
42124;SDS011;27787;44.594;11.046;2023-03-18T08:02:37;22.42;;;10.65;;
42124;SDS011;27787;44.594;11.046;2023-03-18T08:05:21;18.65;;;10.40;;
42124;SDS011;27787;44.594;11.046;2023-03-18T08:08:05;18.83;;;9.73;;
42124;SDS011;27787;44.594;11.046;2023-03-18T08:10:50;21.27;;;10.48;;
42124;SDS011;27787;44.594;11.046;2023-03-18T08:13:37;18.75;;;10.30;;
42124;SDS011;27787;44.594;11.046;2023-03-18T08:16:22;20.77;;;9.65;;
42124;SDS011;27787;44.594;11.046;2023-03-18T08:19:06;20.48;;;10.73;;
42124;SDS011;27787;44.594;11.046;2023-03-18T08:21:50;23.58;;;10.88;;
42124;SDS011;27787;44.594;11.046;2023-03-18T08:24:35;22.05;;;11.02;;
42124;SDS011;27787;44.594;11.046;2023-03-18T08:27:23;21.48;;;10.52;;
42124;SDS011;27787;44.594;11.046;2023-03-18T08:30:08;21.67;;;9.45;;
42124;SDS011;27787;44.594;11.046;2023-03-18T08:32:53;18.60;;;8.75;;
42124;SDS011;27787;44.594;11.046;2023-03-18T08:35:38;20.48;;;9.40;;
42124;SDS011;27787;44.594;11.046;2023-03-18T08:38:24;17.63;;;9.48;;
42124;SDS011;27787;44.594;11.046;2023-03-18T08:41:08;17.60;;;9.75;;
42124;SDS011;27787;44.594;11.046;2023-03-18T08:43:52;29.83;;;10.38;;
42124;SDS011;27787;44.594;11.046;2023-03-18T08:46:40;18.05;;;8.45;;
42124;SDS011;27787;44.594;11.046;2023-03-18T08:49:23;18.27;;;8.05;;
42124;SDS011;27787;44.594;11.046;2023-03-18T08:52:08;15.27;;;8.10;;
42124;SDS011;27787;44.594;11.046;2023-03-18T08:54:52;17.70;;;8.27;;
42124;SDS011;27787;44.594;11.046;2023-03-18T08:57:37;16.95;;;8.52;;
42124;SDS011;27787;44.594;11.046;2023-03-18T09:00:21;16.10;;;7.35;;
42124;SDS011;27787;44.594;11.046;2023-03-18T09:03:05;18.58;;;8.23;;
42124;SDS011;27787;44.594;11.046;2023-03-18T09:08:35;14.73;;;7.38;;
42124;SDS011;27787;44.594;11.046;2023-03-18T09:11:21;16.70;;;8.48;;
42124;SDS011;27787;44.594;11.046;2023-03-18T09:14:06;14.05;;;7.20;;
42124;SDS011;27787;44.594;11.046;2023-03-18T09:16:50;20.95;;;8.95;;
42124;SDS011;27787;44.594;11.046;2023-03-18T09:19:34;16.33;;;9.00;;
42124;SDS011;27787;44.594;11.046;2023-03-18T09:22:20;20.55;;;8.93;;
42124;SDS011;27787;44.594;11.046;2023-03-18T09:25:04;24.52;;;8.48;;
42124;SDS011;27787;44.594;11.046;2023-03-18T09:27:49;16.70;;;7.72;;
42124;SDS011;27787;44.594;11.046;2023-03-18T09:30:34;20.83;;;8.05;;
42124;SDS011;27787;44.594;11.046;2023-03-18T09:33:18;14.60;;;7.32;;
42124;SDS011;27787;44.594;11.046;2023-03-18T09:36:03;17.55;;;7.97;;
42124;SDS011;27787;44.594;11.046;2023-03-18T09:38:48;13.50;;;7.15;;
42124;SDS011;27787;44.594;11.046;2023-03-18T09:44:34;13.48;;;6.93;;
42124;SDS011;27787;44.594;11.046;2023-03-18T09:56:31;17.27;;;7.88;;
42124;SDS011;27787;44.594;11.046;2023-03-18T09:59:29;16.02;;;7.75;;
42124;SDS011;27787;44.594;11.046;2023-03-18T10:02:22;17.38;;;8.50;;
42124;SDS011;27787;44.594;11.046;2023-03-18T10:05:31;17.38;;;7.05;;
42124;SDS011;27787;44.594;11.046;2023-03-18T10:17:37;16.70;;;6.90;;
42124;SDS011;27787;44.594;11.046;2023-03-18T10:20:36;14.25;;;7.85;;
42124;SDS011;27787;44.594;11.046;2023-03-18T10:35:41;14.43;;;6.85;;
42124;SDS011;27787;44.594;11.046;2023-03-18T10:38:44;15.95;;;7.43;;
42124;SDS011;27787;44.594;11.046;2023-03-18T10:41:32;14.43;;;7.57;;
42124;SDS011;27787;44.594;11.046;2023-03-18T10:47:27;14.48;;;6.38;;
42124;SDS011;27787;44.594;11.046;2023-03-18T10:53:29;13.98;;;7.25;;
42124;SDS011;27787;44.594;11.046;2023-03-18T10:59:13;16.55;;;5.75;;
42124;SDS011;27787;44.594;11.046;2023-03-18T11:02:03;14.00;;;5.82;;
42124;SDS011;27787;44.594;11.046;2023-03-18T11:05:04;13.52;;;6.30;;
42124;SDS011;27787;44.594;11.046;2023-03-18T11:07:59;14.38;;;5.78;;
42124;SDS011;27787;44.594;11.046;2023-03-18T11:10:47;8.82;;;4.45;;
42124;SDS011;27787;44.594;11.046;2023-03-18T11:13:31;13.85;;;6.35;;
42124;SDS011;27787;44.594;11.046;2023-03-18T11:19:40;10.90;;;5.57;;
42124;SDS011;27787;44.594;11.046;2023-03-18T11:22:31;22.30;;;6.75;;
42124;SDS011;27787;44.594;11.046;2023-03-18T11:25:23;12.57;;;6.45;;
42124;SDS011;27787;44.594;11.046;2023-03-18T11:28:17;12.55;;;5.93;;
42124;SDS011;27787;44.594;11.046;2023-03-18T11:31:06;16.75;;;6.53;;
42124;SDS011;27787;44.594;11.046;2023-03-18T11:33:55;14.40;;;6.30;;
42124;SDS011;27787;44.594;11.046;2023-03-18T11:36:41;16.35;;;6.10;;
42124;SDS011;27787;44.594;11.046;2023-03-18T11:39:26;13.48;;;6.45;;
42124;SDS011;27787;44.594;11.046;2023-03-18T11:42:17;17.58;;;6.47;;
42124;SDS011;27787;44.594;11.046;2023-03-18T11:45:17;16.00;;;6.88;;
42124;SDS011;27787;44.594;11.046;2023-03-18T11:48:09;11.85;;;5.13;;
42124;SDS011;27787;44.594;11.046;2023-03-18T11:51:05;14.07;;;6.05;;
42124;SDS011;27787;44.594;11.046;2023-03-18T11:59:31;14.95;;;6.28;;
42124;SDS011;27787;44.594;11.046;2023-03-18T12:02:26;19.73;;;6.80;;
42124;SDS011;27787;44.594;11.046;2023-03-18T12:08:22;15.90;;;6.10;;
42124;SDS011;27787;44.594;11.046;2023-03-18T12:11:30;12.57;;;6.15;;
42124;SDS011;27787;44.594;11.046;2023-03-18T12:14:33;13.18;;;6.20;;
42124;SDS011;27787;44.594;11.046;2023-03-18T12:29:29;17.30;;;7.00;;
42124;SDS011;27787;44.594;11.046;2023-03-18T12:35:55;18.02;;;6.43;;
42124;SDS011;27787;44.594;11.046;2023-03-18T12:38:32;15.20;;;6.63;;
42124;SDS011;27787;44.594;11.046;2023-03-18T12:41:47;15.23;;;6.47;;
42124;SDS011;27787;44.594;11.046;2023-03-18T12:44:42;14.52;;;6.85;;
42124;SDS011;27787;44.594;11.046;2023-03-18T12:47:56;21.02;;;6.95;;
42124;SDS011;27787;44.594;11.046;2023-03-18T12:51:08;18.23;;;6.78;;
42124;SDS011;27787;44.594;11.046;2023-03-18T12:53:55;17.70;;;7.10;;
42124;SDS011;27787;44.594;11.046;2023-03-18T12:56:52;20.70;;;6.43;;
42124;SDS011;27787;44.594;11.046;2023-03-18T12:59:44;13.55;;;6.43;;
42124;SDS011;27787;44.594;11.046;2023-03-18T13:02:35;15.50;;;7.72;;
42124;SDS011;27787;44.594;11.046;2023-03-18T13:12:22;15.98;;;6.68;;
42124;SDS011;27787;44.594;11.046;2023-03-18T13:18:34;15.02;;;6.30;;
42124;SDS011;27787;44.594;11.046;2023-03-18T13:21:28;15.02;;;6.15;;
42124;SDS011;27787;44.594;11.046;2023-03-18T13:24:29;13.63;;;6.03;;
42124;SDS011;27787;44.594;11.046;2023-03-18T13:27:24;15.45;;;6.78;;
42124;SDS011;27787;44.594;11.046;2023-03-18T13:30:23;12.35;;;6.13;;
42124;SDS011;27787;44.594;11.046;2023-03-18T13:43:24;15.25;;;7.43;;
42124;SDS011;27787;44.594;11.046;2023-03-18T13:46:22;16.63;;;7.13;;
42124;SDS011;27787;44.594;11.046;2023-03-18T13:49:15;15.07;;;6.93;;
42124;SDS011;27787;44.594;11.046;2023-03-18T13:52:02;18.15;;;7.57;;
42124;SDS011;27787;44.594;11.046;2023-03-18T13:54:47;16.73;;;7.95;;
42124;SDS011;27787;44.594;11.046;2023-03-18T13:57:34;21.25;;;9.15;;
42124;SDS011;27787;44.594;11.046;2023-03-18T14:03:30;17.98;;;7.05;;
42124;SDS011;27787;44.594;11.046;2023-03-18T14:09:30;20.88;;;8.80;;
42124;SDS011;27787;44.594;11.046;2023-03-18T14:12:18;18.88;;;8.30;;
42124;SDS011;27787;44.594;11.046;2023-03-18T14:20:41;19.70;;;8.38;;
42124;SDS011;27787;44.594;11.046;2023-03-18T14:23:36;14.50;;;7.25;;
42124;SDS011;27787;44.594;11.046;2023-03-18T14:26:24;14.73;;;7.28;;
42124;SDS011;27787;44.594;11.046;2023-03-18T14:32:00;15.30;;;6.78;;
42124;SDS011;27787;44.594;11.046;2023-03-18T14:34:54;16.42;;;6.60;;
42124;SDS011;27787;44.594;11.046;2023-03-18T14:40:54;13.65;;;6.38;;
42124;SDS011;27787;44.594;11.046;2023-03-18T14:43:43;16.33;;;6.85;;
42124;SDS011;27787;44.594;11.046;2023-03-18T14:46:48;10.95;;;5.95;;
42124;SDS011;27787;44.594;11.046;2023-03-18T14:49:36;14.15;;;6.90;;
42124;SDS011;27787;44.594;11.046;2023-03-18T14:52:28;19.38;;;6.18;;
42124;SDS011;27787;44.594;11.046;2023-03-18T14:55:26;13.65;;;6.47;;
42124;SDS011;27787;44.594;11.046;2023-03-18T14:58:15;14.45;;;6.35;;
42124;SDS011;27787;44.594;11.046;2023-03-18T15:01:08;13.65;;;6.40;;
42124;SDS011;27787;44.594;11.046;2023-03-18T15:03:55;16.38;;;6.60;;
42124;SDS011;27787;44.594;11.046;2023-03-18T15:06:40;13.93;;;6.10;;
42124;SDS011;27787;44.594;11.046;2023-03-18T15:09:26;13.02;;;5.93;;
42124;SDS011;27787;44.594;11.046;2023-03-18T15:12:16;11.90;;;4.95;;
42124;SDS011;27787;44.594;11.046;2023-03-18T15:15:14;11.97;;;5.63;;
42124;SDS011;27787;44.594;11.046;2023-03-18T15:18:02;14.02;;;5.30;;
42124;SDS011;27787;44.594;11.046;2023-03-18T15:20:55;14.00;;;6.05;;
42124;SDS011;27787;44.594;11.046;2023-03-18T15:23:54;11.68;;;6.05;;
42124;SDS011;27787;44.594;11.046;2023-03-18T15:26:43;11.45;;;5.80;;
42124;SDS011;27787;44.594;11.046;2023-03-18T15:29:28;11.63;;;5.25;;
42124;SDS011;27787;44.594;11.046;2023-03-18T15:32:22;15.13;;;5.32;;
42124;SDS011;27787;44.594;11.046;2023-03-18T15:40:52;9.88;;;5.10;;
42124;SDS011;27787;44.594;11.046;2023-03-18T15:43:49;12.38;;;5.22;;
42124;SDS011;27787;44.594;11.046;2023-03-18T15:46:34;10.45;;;4.90;;
42124;SDS011;27787;44.594;11.046;2023-03-18T15:49:18;11.23;;;5.10;;
42124;SDS011;27787;44.594;11.046;2023-03-18T15:52:09;12.30;;;5.32;;
42124;SDS011;27787;44.594;11.046;2023-03-18T15:54:57;10.45;;;5.32;;
42124;SDS011;27787;44.594;11.046;2023-03-18T15:57:43;13.37;;;5.13;;
42124;SDS011;27787;44.594;11.046;2023-03-18T16:00:27;8.55;;;5.07;;
42124;SDS011;27787;44.594;11.046;2023-03-18T16:03:15;11.63;;;6.40;;
42124;SDS011;27787;44.594;11.046;2023-03-18T16:06:05;9.73;;;5.07;;
42124;SDS011;27787;44.594;11.046;2023-03-18T16:08:49;12.23;;;5.47;;
42124;SDS011;27787;44.594;11.046;2023-03-18T16:11:33;8.65;;;4.57;;
42124;SDS011;27787;44.594;11.046;2023-03-18T16:14:20;14.73;;;5.90;;
42124;SDS011;27787;44.594;11.046;2023-03-18T16:17:12;10.15;;;5.97;;
42124;SDS011;27787;44.594;11.046;2023-03-18T16:20:00;10.98;;;5.65;;
42124;SDS011;27787;44.594;11.046;2023-03-18T16:22:47;10.93;;;5.65;;
42124;SDS011;27787;44.594;11.046;2023-03-18T16:25:32;11.05;;;5.35;;
42124;SDS011;27787;44.594;11.046;2023-03-18T16:28:20;13.48;;;7.40;;
42124;SDS011;27787;44.594;11.046;2023-03-18T16:31:06;13.48;;;6.78;;
42124;SDS011;27787;44.594;11.046;2023-03-18T16:33:50;10.15;;;5.68;;
42124;SDS011;27787;44.594;11.046;2023-03-18T16:36:36;8.18;;;4.38;;
42124;SDS011;27787;44.594;11.046;2023-03-18T16:39:22;10.35;;;5.85;;
42124;SDS011;27787;44.594;11.046;2023-03-18T16:42:08;11.73;;;5.95;;
42124;SDS011;27787;44.594;11.046;2023-03-18T16:44:52;14.73;;;6.75;;
42124;SDS011;27787;44.594;11.046;2023-03-18T16:47:37;11.93;;;6.20;;
42124;SDS011;27787;44.594;11.046;2023-03-18T16:50:22;11.23;;;6.10;;
42124;SDS011;27787;44.594;11.046;2023-03-18T16:56:08;10.63;;;5.60;;
42124;SDS011;27787;44.594;11.046;2023-03-18T16:58:59;15.07;;;6.15;;
42124;SDS011;27787;44.594;11.046;2023-03-18T17:01:44;11.80;;;5.93;;
42124;SDS011;27787;44.594;11.046;2023-03-18T17:04:30;11.40;;;6.40;;
42124;SDS011;27787;44.594;11.046;2023-03-18T17:07:16;9.88;;;5.65;;
42124;SDS011;27787;44.594;11.046;2023-03-18T17:10:00;15.40;;;7.10;;
42124;SDS011;27787;44.594;11.046;2023-03-18T17:12:51;32.22;;;10.05;;
42124;SDS011;27787;44.594;11.046;2023-03-18T17:15:39;37.13;;;13.40;;
42124;SDS011;27787;44.594;11.046;2023-03-18T17:18:25;23.88;;;11.50;;
42124;SDS011;27787;44.594;11.046;2023-03-18T17:21:10;48.45;;;15.10;;
42124;SDS011;27787;44.594;11.046;2023-03-18T17:23:55;30.60;;;13.10;;
42124;SDS011;27787;44.594;11.046;2023-03-18T17:26:39;21.25;;;10.40;;
42124;SDS011;27787;44.594;11.046;2023-03-18T17:29:25;17.08;;;8.48;;
42124;SDS011;27787;44.594;11.046;2023-03-18T17:32:12;21.33;;;8.43;;
42124;SDS011;27787;44.594;11.046;2023-03-18T17:34:56;13.60;;;8.13;;
42124;SDS011;27787;44.594;11.046;2023-03-18T17:37:41;16.50;;;7.53;;
42124;SDS011;27787;44.594;11.046;2023-03-18T17:40:27;16.60;;;7.25;;
42124;SDS011;27787;44.594;11.046;2023-03-18T17:43:17;15.50;;;7.45;;
42124;SDS011;27787;44.594;11.046;2023-03-18T17:46:17;17.65;;;6.68;;
42124;SDS011;27787;44.594;11.046;2023-03-18T17:49:08;22.55;;;7.85;;
42124;SDS011;27787;44.594;11.046;2023-03-18T17:51:54;16.35;;;7.63;;
42124;SDS011;27787;44.594;11.046;2023-03-18T17:54:39;13.43;;;8.38;;
42124;SDS011;27787;44.594;11.046;2023-03-18T17:57:23;15.00;;;8.35;;
42124;SDS011;27787;44.594;11.046;2023-03-18T18:00:15;16.63;;;9.27;;
42124;SDS011;27787;44.594;11.046;2023-03-18T18:03:04;16.95;;;8.77;;
42124;SDS011;27787;44.594;11.046;2023-03-18T18:05:49;18.70;;;9.18;;
42124;SDS011;27787;44.594;11.046;2023-03-18T18:08:33;18.88;;;9.45;;
42124;SDS011;27787;44.594;11.046;2023-03-18T18:14:15;14.70;;;8.35;;
42124;SDS011;27787;44.594;11.046;2023-03-18T18:17:11;18.27;;;9.35;;
42124;SDS011;27787;44.594;11.046;2023-03-18T18:19:57;19.88;;;9.40;;
42124;SDS011;27787;44.594;11.046;2023-03-18T18:22:43;17.05;;;8.82;;
42124;SDS011;27787;44.594;11.046;2023-03-18T18:25:29;16.77;;;8.88;;
42124;SDS011;27787;44.594;11.046;2023-03-18T18:28:18;19.95;;;9.63;;
42124;SDS011;27787;44.594;11.046;2023-03-18T18:31:05;19.98;;;10.05;;
42124;SDS011;27787;44.594;11.046;2023-03-18T18:33:52;15.15;;;8.77;;
42124;SDS011;27787;44.594;11.046;2023-03-18T18:36:38;16.10;;;9.10;;
42124;SDS011;27787;44.594;11.046;2023-03-18T18:39:23;15.82;;;9.00;;
42124;SDS011;27787;44.594;11.046;2023-03-18T18:42:07;20.05;;;10.40;;
42124;SDS011;27787;44.594;11.046;2023-03-18T18:44:51;22.00;;;10.45;;
42124;SDS011;27787;44.594;11.046;2023-03-18T18:47:36;17.60;;;9.88;;
42124;SDS011;27787;44.594;11.046;2023-03-18T18:50:26;15.50;;;9.38;;